sensor_id;sensor_type;location;lat;lon;timestamp;P1;durP1;ratioP1;P2;durP2;ratioP2
47545;SDS011;50104;52.002;4.688;2023-02-15T00:00:21;27.57;;;16.37;;
47545;SDS011;50104;52.002;4.688;2023-02-15T00:05:23;35.50;;;18.93;;
47545;SDS011;50104;52.002;4.688;2023-02-15T00:10:24;37.43;;;20.67;;
47545;SDS011;50104;52.002;4.688;2023-02-15T00:15:25;37.07;;;19.70;;
47545;SDS011;50104;52.002;4.688;2023-02-15T00:20:26;36.33;;;18.23;;
47545;SDS011;50104;52.002;4.688;2023-02-15T00:25:27;36.30;;;20.17;;
47545;SDS011;50104;52.002;4.688;2023-02-15T00:30:27;40.53;;;21.27;;
47545;SDS011;50104;52.002;4.688;2023-02-15T00:35:28;50.40;;;25.17;;
47545;SDS011;50104;52.002;4.688;2023-02-15T00:40:29;43.47;;;24.10;;
47545;SDS011;50104;52.002;4.688;2023-02-15T00:45:30;48.20;;;24.47;;
47545;SDS011;50104;52.002;4.688;2023-02-15T00:50:31;42.67;;;24.10;;
47545;SDS011;50104;52.002;4.688;2023-02-15T00:55:31;47.53;;;24.43;;
47545;SDS011;50104;52.002;4.688;2023-02-15T01:00:32;43.43;;;23.20;;
47545;SDS011;50104;52.002;4.688;2023-02-15T01:05:33;41.87;;;23.90;;
47545;SDS011;50104;52.002;4.688;2023-02-15T01:10:35;49.57;;;23.67;;
47545;SDS011;50104;52.002;4.688;2023-02-15T01:15:36;47.70;;;24.33;;
47545;SDS011;50104;52.002;4.688;2023-02-15T01:20:37;48.17;;;24.07;;
47545;SDS011;50104;52.002;4.688;2023-02-15T01:25:41;51.20;;;26.00;;
47545;SDS011;50104;52.002;4.688;2023-02-15T01:30:41;47.37;;;25.60;;
47545;SDS011;50104;52.002;4.688;2023-02-15T01:35:43;47.27;;;26.43;;
47545;SDS011;50104;52.002;4.688;2023-02-15T01:40:46;51.97;;;26.07;;
47545;SDS011;50104;52.002;4.688;2023-02-15T01:45:47;47.10;;;24.67;;
47545;SDS011;50104;52.002;4.688;2023-02-15T01:50:53;45.70;;;24.83;;
47545;SDS011;50104;52.002;4.688;2023-02-15T01:55:59;47.53;;;24.10;;
47545;SDS011;50104;52.002;4.688;2023-02-15T02:01:05;55.00;;;26.80;;
47545;SDS011;50104;52.002;4.688;2023-02-15T02:06:09;44.20;;;22.53;;
47545;SDS011;50104;52.002;4.688;2023-02-15T02:11:12;47.03;;;24.17;;
47545;SDS011;50104;52.002;4.688;2023-02-15T02:27:39;45.10;;;23.13;;
47545;SDS011;50104;52.002;4.688;2023-02-15T02:49:13;42.13;;;21.97;;
47545;SDS011;50104;52.002;4.688;2023-02-15T02:54:13;46.50;;;22.97;;
47545;SDS011;50104;52.002;4.688;2023-02-15T03:04:19;50.43;;;25.17;;
47545;SDS011;50104;52.002;4.688;2023-02-15T03:14:43;48.53;;;24.47;;
47545;SDS011;50104;52.002;4.688;2023-02-15T03:19:48;43.27;;;24.20;;
47545;SDS011;50104;52.002;4.688;2023-02-15T03:24:56;51.13;;;23.83;;
47545;SDS011;50104;52.002;4.688;2023-02-15T03:30:09;44.53;;;21.63;;
47545;SDS011;50104;52.002;4.688;2023-02-15T03:35:13;45.53;;;22.50;;
47545;SDS011;50104;52.002;4.688;2023-02-15T03:45:39;48.60;;;23.70;;
47545;SDS011;50104;52.002;4.688;2023-02-15T03:50:55;44.50;;;23.23;;
47545;SDS011;50104;52.002;4.688;2023-02-15T03:56:21;47.37;;;22.87;;
47545;SDS011;50104;52.002;4.688;2023-02-15T04:06:46;50.13;;;22.27;;
47545;SDS011;50104;52.002;4.688;2023-02-15T04:11:47;47.77;;;23.93;;
47545;SDS011;50104;52.002;4.688;2023-02-15T04:16:47;53.63;;;25.73;;
47545;SDS011;50104;52.002;4.688;2023-02-15T04:21:48;51.77;;;24.60;;
47545;SDS011;50104;52.002;4.688;2023-02-15T04:27:07;49.33;;;23.63;;
47545;SDS011;50104;52.002;4.688;2023-02-15T04:32:08;47.07;;;24.60;;
47545;SDS011;50104;52.002;4.688;2023-02-15T04:37:09;53.93;;;24.10;;
47545;SDS011;50104;52.002;4.688;2023-02-15T04:42:10;51.43;;;23.83;;
47545;SDS011;50104;52.002;4.688;2023-02-15T04:47:11;41.77;;;22.57;;
47545;SDS011;50104;52.002;4.688;2023-02-15T04:52:12;49.77;;;22.43;;
47545;SDS011;50104;52.002;4.688;2023-02-15T04:57:13;40.60;;;22.70;;
47545;SDS011;50104;52.002;4.688;2023-02-15T05:02:13;43.50;;;21.93;;
47545;SDS011;50104;52.002;4.688;2023-02-15T05:07:14;43.80;;;21.90;;
47545;SDS011;50104;52.002;4.688;2023-02-15T05:12:15;44.50;;;21.33;;
47545;SDS011;50104;52.002;4.688;2023-02-15T05:17:16;45.40;;;21.53;;
47545;SDS011;50104;52.002;4.688;2023-02-15T05:22:16;41.17;;;19.97;;
47545;SDS011;50104;52.002;4.688;2023-02-15T05:27:17;40.40;;;22.13;;
47545;SDS011;50104;52.002;4.688;2023-02-15T05:32:37;52.07;;;23.37;;
47545;SDS011;50104;52.002;4.688;2023-02-15T05:37:38;46.30;;;21.80;;
47545;SDS011;50104;52.002;4.688;2023-02-15T05:42:39;45.03;;;22.13;;
47545;SDS011;50104;52.002;4.688;2023-02-15T05:47:40;41.97;;;21.80;;
47545;SDS011;50104;52.002;4.688;2023-02-15T05:52:42;50.60;;;23.00;;
47545;SDS011;50104;52.002;4.688;2023-02-15T05:57:42;47.20;;;21.30;;
47545;SDS011;50104;52.002;4.688;2023-02-15T06:02:43;42.83;;;20.90;;
47545;SDS011;50104;52.002;4.688;2023-02-15T06:07:44;44.70;;;22.33;;
47545;SDS011;50104;52.002;4.688;2023-02-15T06:12:45;41.00;;;22.23;;
47545;SDS011;50104;52.002;4.688;2023-02-15T06:17:46;37.40;;;19.63;;
47545;SDS011;50104;52.002;4.688;2023-02-15T06:22:46;37.47;;;20.63;;
47545;SDS011;50104;52.002;4.688;2023-02-15T06:27:47;38.53;;;20.20;;
47545;SDS011;50104;52.002;4.688;2023-02-15T06:32:49;39.53;;;21.27;;
47545;SDS011;50104;52.002;4.688;2023-02-15T06:37:50;42.37;;;21.10;;
47545;SDS011;50104;52.002;4.688;2023-02-15T06:42:51;38.03;;;20.17;;
47545;SDS011;50104;52.002;4.688;2023-02-15T06:47:52;46.13;;;21.50;;
47545;SDS011;50104;52.002;4.688;2023-02-15T06:52:59;39.43;;;22.27;;
47545;SDS011;50104;52.002;4.688;2023-02-15T06:58:00;38.50;;;19.93;;
47545;SDS011;50104;52.002;4.688;2023-02-15T07:03:01;41.60;;;20.57;;
47545;SDS011;50104;52.002;4.688;2023-02-15T07:08:02;38.57;;;19.73;;
47545;SDS011;50104;52.002;4.688;2023-02-15T07:13:03;38.23;;;19.17;;
47545;SDS011;50104;52.002;4.688;2023-02-15T07:18:04;43.67;;;20.07;;
47545;SDS011;50104;52.002;4.688;2023-02-15T07:23:05;46.40;;;21.90;;
47545;SDS011;50104;52.002;4.688;2023-02-15T07:28:06;32.20;;;19.50;;
47545;SDS011;50104;52.002;4.688;2023-02-15T07:33:07;40.03;;;21.20;;
47545;SDS011;50104;52.002;4.688;2023-02-15T07:38:23;39.83;;;21.90;;
47545;SDS011;50104;52.002;4.688;2023-02-15T07:43:26;45.50;;;21.90;;
47545;SDS011;50104;52.002;4.688;2023-02-15T07:48:29;43.73;;;23.03;;
47545;SDS011;50104;52.002;4.688;2023-02-15T07:53:31;41.83;;;20.70;;
47545;SDS011;50104;52.002;4.688;2023-02-15T07:58:32;38.63;;;21.53;;
47545;SDS011;50104;52.002;4.688;2023-02-15T08:03:55;42.73;;;22.80;;
47545;SDS011;50104;52.002;4.688;2023-02-15T08:08:57;42.53;;;22.57;;
47545;SDS011;50104;52.002;4.688;2023-02-15T08:14:08;52.57;;;25.03;;
47545;SDS011;50104;52.002;4.688;2023-02-15T08:24:21;57.85;;;27.35;;
47545;SDS011;50104;52.002;4.688;2023-02-15T08:29:25;47.80;;;25.10;;
47545;SDS011;50104;52.002;4.688;2023-02-15T08:34:29;53.47;;;24.63;;
47545;SDS011;50104;52.002;4.688;2023-02-15T08:39:32;54.80;;;27.10;;
47545;SDS011;50104;52.002;4.688;2023-02-15T08:44:33;48.63;;;25.70;;
47545;SDS011;50104;52.002;4.688;2023-02-15T08:49:34;60.43;;;28.30;;
47545;SDS011;50104;52.002;4.688;2023-02-15T08:54:35;51.37;;;27.40;;
47545;SDS011;50104;52.002;4.688;2023-02-15T08:59:36;60.93;;;29.70;;
47545;SDS011;50104;52.002;4.688;2023-02-15T09:04:37;61.03;;;29.73;;
47545;SDS011;50104;52.002;4.688;2023-02-15T09:09:37;62.93;;;31.13;;
47545;SDS011;50104;52.002;4.688;2023-02-15T09:14:38;64.27;;;32.33;;
47545;SDS011;50104;52.002;4.688;2023-02-15T09:19:39;67.20;;;33.87;;
47545;SDS011;50104;52.002;4.688;2023-02-15T09:24:40;68.60;;;34.63;;
47545;SDS011;50104;52.002;4.688;2023-02-15T09:29:41;82.40;;;39.03;;
47545;SDS011;50104;52.002;4.688;2023-02-15T09:34:42;72.90;;;37.40;;
47545;SDS011;50104;52.002;4.688;2023-02-15T09:39:43;81.83;;;39.93;;
47545;SDS011;50104;52.002;4.688;2023-02-15T10:18:11;86.63;;;43.88;;
47545;SDS011;50104;52.002;4.688;2023-02-15T10:23:56;77.82;;;42.65;;
47545;SDS011;50104;52.002;4.688;2023-02-15T10:34:36;78.47;;;41.28;;
47545;SDS011;50104;52.002;4.688;2023-02-15T10:39:57;80.53;;;41.28;;
47545;SDS011;50104;52.002;4.688;2023-02-15T11:07:02;72.63;;;37.88;;
47545;SDS011;50104;52.002;4.688;2023-02-15T11:12:18;71.60;;;39.00;;
47545;SDS011;50104;52.002;4.688;2023-02-15T11:17:25;66.60;;;35.43;;
47545;SDS011;50104;52.002;4.688;2023-02-15T11:22:46;59.17;;;34.35;;
47545;SDS011;50104;52.002;4.688;2023-02-15T11:27:49;61.10;;;33.67;;
47545;SDS011;50104;52.002;4.688;2023-02-15T11:32:53;61.95;;;34.50;;
47545;SDS011;50104;52.002;4.688;2023-02-15T11:38:14;54.70;;;33.13;;
47545;SDS011;50104;52.002;4.688;2023-02-15T11:48:43;57.33;;;32.45;;
47545;SDS011;50104;52.002;4.688;2023-02-15T11:53:45;54.17;;;31.38;;
47545;SDS011;50104;52.002;4.688;2023-02-15T11:59:02;52.85;;;31.42;;
47545;SDS011;50104;52.002;4.688;2023-02-15T12:04:30;52.20;;;31.02;;
47545;SDS011;50104;52.002;4.688;2023-02-15T12:09:46;51.22;;;30.00;;
47545;SDS011;50104;52.002;4.688;2023-02-15T12:15:07;48.03;;;29.80;;
47545;SDS011;50104;52.002;4.688;2023-02-15T12:25:22;48.58;;;28.63;;
47545;SDS011;50104;52.002;4.688;2023-02-15T12:30:54;49.75;;;29.58;;
47545;SDS011;50104;52.002;4.688;2023-02-15T12:41:25;49.38;;;28.95;;
47545;SDS011;50104;52.002;4.688;2023-02-15T12:46:26;49.10;;;26.80;;
47545;SDS011;50104;52.002;4.688;2023-02-15T12:51:27;45.25;;;27.98;;
47545;SDS011;50104;52.002;4.688;2023-02-15T12:56:28;48.75;;;29.38;;
47545;SDS011;50104;52.002;4.688;2023-02-15T13:01:29;48.50;;;28.65;;
47545;SDS011;50104;52.002;4.688;2023-02-15T13:06:33;47.25;;;27.45;;
47545;SDS011;50104;52.002;4.688;2023-02-15T13:11:36;46.55;;;26.67;;
47545;SDS011;50104;52.002;4.688;2023-02-15T13:16:38;47.40;;;29.15;;
47545;SDS011;50104;52.002;4.688;2023-02-15T13:21:41;45.30;;;26.75;;
47545;SDS011;50104;52.002;4.688;2023-02-15T13:26:49;44.00;;;26.35;;
47545;SDS011;50104;52.002;4.688;2023-02-15T13:31:51;42.55;;;24.50;;
47545;SDS011;50104;52.002;4.688;2023-02-15T13:36:57;41.80;;;23.75;;
47545;SDS011;50104;52.002;4.688;2023-02-15T13:58:31;45.28;;;23.85;;
47545;SDS011;50104;52.002;4.688;2023-02-15T14:31:37;45.83;;;26.73;;
47545;SDS011;50104;52.002;4.688;2023-02-15T14:36:43;46.47;;;27.73;;
47545;SDS011;50104;52.002;4.688;2023-02-15T14:41:47;46.92;;;26.98;;
47545;SDS011;50104;52.002;4.688;2023-02-15T14:52:10;51.53;;;26.95;;
47545;SDS011;50104;52.002;4.688;2023-02-15T15:02:20;50.70;;;27.05;;
47545;SDS011;50104;52.002;4.688;2023-02-15T15:07:26;53.10;;;29.13;;
47545;SDS011;50104;52.002;4.688;2023-02-15T15:12:47;46.13;;;27.40;;
47545;SDS011;50104;52.002;4.688;2023-02-15T15:18:00;44.88;;;26.92;;
47545;SDS011;50104;52.002;4.688;2023-02-15T15:50:14;50.80;;;30.42;;
47545;SDS011;50104;52.002;4.688;2023-02-15T15:55:27;52.25;;;30.67;;
47545;SDS011;50104;52.002;4.688;2023-02-15T16:00:47;52.80;;;29.25;;
47545;SDS011;50104;52.002;4.688;2023-02-15T16:05:52;53.15;;;29.02;;
47545;SDS011;50104;52.002;4.688;2023-02-15T16:16:29;52.58;;;29.35;;
47545;SDS011;50104;52.002;4.688;2023-02-15T16:21:32;49.83;;;28.83;;
47545;SDS011;50104;52.002;4.688;2023-02-15T16:31:59;53.03;;;29.05;;
47545;SDS011;50104;52.002;4.688;2023-02-15T16:37:25;46.88;;;28.10;;
47545;SDS011;50104;52.002;4.688;2023-02-15T16:42:34;52.88;;;29.60;;
47545;SDS011;50104;52.002;4.688;2023-02-15T16:47:38;51.72;;;28.58;;
47545;SDS011;50104;52.002;4.688;2023-02-15T16:52:51;54.83;;;29.25;;
47545;SDS011;50104;52.002;4.688;2023-02-15T16:57:56;54.40;;;30.10;;
47545;SDS011;50104;52.002;4.688;2023-02-15T17:03:05;51.30;;;28.08;;
47545;SDS011;50104;52.002;4.688;2023-02-15T17:19:26;47.38;;;27.17;;
47545;SDS011;50104;52.002;4.688;2023-02-15T17:24:38;50.90;;;27.73;;
47545;SDS011;50104;52.002;4.688;2023-02-15T17:29:51;49.47;;;27.70;;
47545;SDS011;50104;52.002;4.688;2023-02-15T17:35:05;51.33;;;27.42;;
47545;SDS011;50104;52.002;4.688;2023-02-15T17:40:25;44.75;;;27.05;;
47545;SDS011;50104;52.002;4.688;2023-02-15T17:45:33;47.10;;;26.25;;
47545;SDS011;50104;52.002;4.688;2023-02-15T17:50:40;51.10;;;27.02;;
47545;SDS011;50104;52.002;4.688;2023-02-15T17:55:41;48.03;;;27.35;;
47545;SDS011;50104;52.002;4.688;2023-02-15T18:00:43;50.47;;;27.17;;
47545;SDS011;50104;52.002;4.688;2023-02-15T18:06:05;49.53;;;26.83;;
47545;SDS011;50104;52.002;4.688;2023-02-15T18:11:25;45.03;;;25.73;;
47545;SDS011;50104;52.002;4.688;2023-02-15T18:16:39;47.75;;;27.73;;
47545;SDS011;50104;52.002;4.688;2023-02-15T18:21:42;50.30;;;25.98;;
47545;SDS011;50104;52.002;4.688;2023-02-15T18:26:45;49.65;;;25.35;;
47545;SDS011;50104;52.002;4.688;2023-02-15T18:31:48;45.97;;;27.00;;
47545;SDS011;50104;52.002;4.688;2023-02-15T18:36:53;56.08;;;29.15;;
47545;SDS011;50104;52.002;4.688;2023-02-15T18:41:54;50.78;;;28.02;;
47545;SDS011;50104;52.002;4.688;2023-02-15T18:46:55;49.60;;;27.55;;
47545;SDS011;50104;52.002;4.688;2023-02-15T18:51:55;52.50;;;28.13;;
47545;SDS011;50104;52.002;4.688;2023-02-15T18:56:57;48.22;;;26.52;;
47545;SDS011;50104;52.002;4.688;2023-02-15T19:02:00;50.13;;;28.05;;
47545;SDS011;50104;52.002;4.688;2023-02-15T19:07:01;47.90;;;26.20;;
47545;SDS011;50104;52.002;4.688;2023-02-15T19:12:01;47.70;;;27.08;;
47545;SDS011;50104;52.002;4.688;2023-02-15T19:17:02;51.17;;;29.45;;
47545;SDS011;50104;52.002;4.688;2023-02-15T19:22:03;49.65;;;27.85;;
47545;SDS011;50104;52.002;4.688;2023-02-15T19:27:11;49.25;;;26.35;;
47545;SDS011;50104;52.002;4.688;2023-02-15T19:32:38;51.22;;;28.70;;
47545;SDS011;50104;52.002;4.688;2023-02-15T19:37:40;50.42;;;27.05;;
47545;SDS011;50104;52.002;4.688;2023-02-15T19:42:43;51.20;;;27.40;;
47545;SDS011;50104;52.002;4.688;2023-02-15T19:47:44;51.42;;;27.77;;
47545;SDS011;50104;52.002;4.688;2023-02-15T19:52:47;50.28;;;27.27;;
47545;SDS011;50104;52.002;4.688;2023-02-15T19:57:48;48.60;;;26.17;;
47545;SDS011;50104;52.002;4.688;2023-02-15T20:02:51;50.33;;;26.80;;
47545;SDS011;50104;52.002;4.688;2023-02-15T20:07:53;55.97;;;28.48;;
47545;SDS011;50104;52.002;4.688;2023-02-15T20:12:54;43.00;;;24.10;;
47545;SDS011;50104;52.002;4.688;2023-02-15T20:17:56;44.35;;;26.65;;
47545;SDS011;50104;52.002;4.688;2023-02-15T20:22:58;51.42;;;25.52;;
47545;SDS011;50104;52.002;4.688;2023-02-15T20:27:59;51.75;;;25.58;;
47545;SDS011;50104;52.002;4.688;2023-02-15T20:33:01;50.38;;;27.15;;
47545;SDS011;50104;52.002;4.688;2023-02-15T20:38:02;50.60;;;25.50;;
47545;SDS011;50104;52.002;4.688;2023-02-15T20:43:07;46.00;;;25.85;;
47545;SDS011;50104;52.002;4.688;2023-02-15T20:48:13;43.55;;;25.55;;
47545;SDS011;50104;52.002;4.688;2023-02-15T20:53:14;47.80;;;25.65;;
47545;SDS011;50104;52.002;4.688;2023-02-15T20:58:25;49.28;;;26.52;;
47545;SDS011;50104;52.002;4.688;2023-02-15T21:03:28;51.97;;;28.00;;
47545;SDS011;50104;52.002;4.688;2023-02-15T21:08:34;49.08;;;26.40;;
47545;SDS011;50104;52.002;4.688;2023-02-15T21:13:35;52.85;;;28.80;;
47545;SDS011;50104;52.002;4.688;2023-02-15T21:18:35;47.25;;;26.00;;
47545;SDS011;50104;52.002;4.688;2023-02-15T21:23:38;47.28;;;25.90;;
47545;SDS011;50104;52.002;4.688;2023-02-15T21:28:41;47.70;;;25.27;;
47545;SDS011;50104;52.002;4.688;2023-02-15T21:33:42;48.67;;;28.25;;
47545;SDS011;50104;52.002;4.688;2023-02-15T21:38:43;52.60;;;26.35;;
47545;SDS011;50104;52.002;4.688;2023-02-15T21:43:45;45.60;;;26.50;;
47545;SDS011;50104;52.002;4.688;2023-02-15T21:49:08;53.42;;;27.52;;
47545;SDS011;50104;52.002;4.688;2023-02-15T21:54:13;53.03;;;28.00;;
47545;SDS011;50104;52.002;4.688;2023-02-15T21:59:17;52.50;;;27.95;;
47545;SDS011;50104;52.002;4.688;2023-02-15T22:04:21;54.58;;;30.15;;
47545;SDS011;50104;52.002;4.688;2023-02-15T22:09:26;51.35;;;29.58;;
47545;SDS011;50104;52.002;4.688;2023-02-15T22:14:37;50.90;;;29.58;;
47545;SDS011;50104;52.002;4.688;2023-02-15T22:19:40;55.47;;;29.75;;
47545;SDS011;50104;52.002;4.688;2023-02-15T22:24:41;58.15;;;31.25;;
47545;SDS011;50104;52.002;4.688;2023-02-15T22:29:43;57.90;;;30.73;;
47545;SDS011;50104;52.002;4.688;2023-02-15T22:34:44;57.00;;;30.63;;
47545;SDS011;50104;52.002;4.688;2023-02-15T22:39:45;53.65;;;30.55;;
47545;SDS011;50104;52.002;4.688;2023-02-15T22:44:46;62.60;;;31.50;;
47545;SDS011;50104;52.002;4.688;2023-02-15T22:49:47;56.88;;;32.05;;
47545;SDS011;50104;52.002;4.688;2023-02-15T22:54:49;59.03;;;31.08;;
47545;SDS011;50104;52.002;4.688;2023-02-15T22:59:49;64.18;;;32.03;;
47545;SDS011;50104;52.002;4.688;2023-02-15T23:04:50;57.78;;;32.38;;
47545;SDS011;50104;52.002;4.688;2023-02-15T23:09:52;59.58;;;33.45;;
47545;SDS011;50104;52.002;4.688;2023-02-15T23:14:53;61.55;;;32.75;;
47545;SDS011;50104;52.002;4.688;2023-02-15T23:19:54;61.50;;;33.70;;
47545;SDS011;50104;52.002;4.688;2023-02-15T23:24:55;64.82;;;33.42;;
47545;SDS011;50104;52.002;4.688;2023-02-15T23:29:56;62.90;;;34.28;;
47545;SDS011;50104;52.002;4.688;2023-02-15T23:34:56;59.42;;;33.30;;
47545;SDS011;50104;52.002;4.688;2023-02-15T23:39:57;55.97;;;31.77;;
47545;SDS011;50104;52.002;4.688;2023-02-15T23:45:21;61.22;;;32.97;;
47545;SDS011;50104;52.002;4.688;2023-02-15T23:50:27;60.40;;;32.65;;
47545;SDS011;50104;52.002;4.688;2023-02-15T23:55:33;58.75;;;31.27;;
